sensor_id;sensor_type;location;lat;lon;timestamp;temperature;humidity
20246;DHT22;10281;54.406;18.556;2022-08-21T00:00:21;20.70;99.90
20246;DHT22;10281;54.406;18.556;2022-08-21T00:02:54;20.70;99.90
20246;DHT22;10281;54.406;18.556;2022-08-21T00:05:22;20.70;99.90
20246;DHT22;10281;54.406;18.556;2022-08-21T00:07:49;20.70;99.90
20246;DHT22;10281;54.406;18.556;2022-08-21T00:10:16;20.80;99.90
20246;DHT22;10281;54.406;18.556;2022-08-21T00:12:43;20.80;99.90
20246;DHT22;10281;54.406;18.556;2022-08-21T00:15:11;20.80;99.90
20246;DHT22;10281;54.406;18.556;2022-08-21T00:17:38;20.80;99.90
20246;DHT22;10281;54.406;18.556;2022-08-21T00:20:07;20.80;99.90
20246;DHT22;10281;54.406;18.556;2022-08-21T00:22:35;20.80;99.90
20246;DHT22;10281;54.406;18.556;2022-08-21T00:25:04;20.80;99.90
20246;DHT22;10281;54.406;18.556;2022-08-21T00:27:31;20.80;99.90
20246;DHT22;10281;54.406;18.556;2022-08-21T00:29:57;20.80;99.90
20246;DHT22;10281;54.406;18.556;2022-08-21T00:32:25;20.80;99.90
20246;DHT22;10281;54.406;18.556;2022-08-21T00:34:53;20.80;99.90
20246;DHT22;10281;54.406;18.556;2022-08-21T00:37:20;20.90;99.90
20246;DHT22;10281;54.406;18.556;2022-08-21T00:39:47;20.80;99.90
20246;DHT22;10281;54.406;18.556;2022-08-21T00:42:15;20.80;99.90
20246;DHT22;10281;54.406;18.556;2022-08-21T00:44:45;20.80;99.90
20246;DHT22;10281;54.406;18.556;2022-08-21T00:47:12;20.60;99.90
20246;DHT22;10281;54.406;18.556;2022-08-21T00:49:40;20.60;99.90
20246;DHT22;10281;54.406;18.556;2022-08-21T00:52:11;20.60;99.90
20246;DHT22;10281;54.406;18.556;2022-08-21T00:54:39;20.60;99.90
20246;DHT22;10281;54.406;18.556;2022-08-21T00:57:10;20.50;99.90
20246;DHT22;10281;54.406;18.556;2022-08-21T00:59:38;20.50;99.90
20246;DHT22;10281;54.406;18.556;2022-08-21T01:02:08;20.60;99.90
20246;DHT22;10281;54.406;18.556;2022-08-21T01:04:35;20.60;99.90
20246;DHT22;10281;54.406;18.556;2022-08-21T01:07:02;20.60;99.90
20246;DHT22;10281;54.406;18.556;2022-08-21T01:09:28;20.60;99.90
20246;DHT22;10281;54.406;18.556;2022-08-21T01:11:55;20.60;99.90
20246;DHT22;10281;54.406;18.556;2022-08-21T01:14:22;20.70;99.90
20246;DHT22;10281;54.406;18.556;2022-08-21T01:16:52;20.70;99.90
20246;DHT22;10281;54.406;18.556;2022-08-21T01:19:20;20.70;99.90
20246;DHT22;10281;54.406;18.556;2022-08-21T01:21:47;20.70;99.90
20246;DHT22;10281;54.406;18.556;2022-08-21T01:24:14;20.70;99.90
20246;DHT22;10281;54.406;18.556;2022-08-21T01:26:42;20.70;99.90
20246;DHT22;10281;54.406;18.556;2022-08-21T01:29:32;20.70;99.90
20246;DHT22;10281;54.406;18.556;2022-08-21T01:32:00;20.70;99.90
20246;DHT22;10281;54.406;18.556;2022-08-21T01:34:27;20.80;99.90
20246;DHT22;10281;54.406;18.556;2022-08-21T01:36:54;20.70;99.90
20246;DHT22;10281;54.406;18.556;2022-08-21T01:39:20;20.70;99.90
20246;DHT22;10281;54.406;18.556;2022-08-21T01:41:48;20.70;99.90
20246;DHT22;10281;54.406;18.556;2022-08-21T01:44:14;20.70;99.90
20246;DHT22;10281;54.406;18.556;2022-08-21T01:46:41;20.70;99.90
20246;DHT22;10281;54.406;18.556;2022-08-21T01:49:08;20.70;99.90
20246;DHT22;10281;54.406;18.556;2022-08-21T01:51:34;20.60;99.90
20246;DHT22;10281;54.406;18.556;2022-08-21T01:54:02;20.60;99.90
20246;DHT22;10281;54.406;18.556;2022-08-21T01:56:28;20.60;99.90
20246;DHT22;10281;54.406;18.556;2022-08-21T01:58:55;20.60;99.90
20246;DHT22;10281;54.406;18.556;2022-08-21T02:01:22;20.60;99.90
20246;DHT22;10281;54.406;18.556;2022-08-21T02:03:48;20.60;99.90
20246;DHT22;10281;54.406;18.556;2022-08-21T02:06:16;20.60;99.90
20246;DHT22;10281;54.406;18.556;2022-08-21T02:08:44;20.60;99.90
20246;DHT22;10281;54.406;18.556;2022-08-21T02:11:11;20.60;99.90
20246;DHT22;10281;54.406;18.556;2022-08-21T02:13:37;20.60;99.90
20246;DHT22;10281;54.406;18.556;2022-08-21T02:16:04;20.60;99.90
20246;DHT22;10281;54.406;18.556;2022-08-21T02:18:32;20.70;99.90
20246;DHT22;10281;54.406;18.556;2022-08-21T02:20:59;20.70;99.90
20246;DHT22;10281;54.406;18.556;2022-08-21T02:23:25;20.70;99.90
20246;DHT22;10281;54.406;18.556;2022-08-21T02:25:52;20.70;99.90
20246;DHT22;10281;54.406;18.556;2022-08-21T02:28:19;20.70;99.90
20246;DHT22;10281;54.406;18.556;2022-08-21T02:30:47;20.70;99.90
20246;DHT22;10281;54.406;18.556;2022-08-21T02:33:14;20.70;99.90
20246;DHT22;10281;54.406;18.556;2022-08-21T02:35:42;20.70;99.90
20246;DHT22;10281;54.406;18.556;2022-08-21T02:38:13;20.70;99.90
20246;DHT22;10281;54.406;18.556;2022-08-21T02:40:43;20.70;99.90
20246;DHT22;10281;54.406;18.556;2022-08-21T02:43:10;20.70;99.90
20246;DHT22;10281;54.406;18.556;2022-08-21T02:45:37;20.70;99.90
20246;DHT22;10281;54.406;18.556;2022-08-21T02:48:07;20.70;99.90
20246;DHT22;10281;54.406;18.556;2022-08-21T02:50:37;20.70;99.90
20246;DHT22;10281;54.406;18.556;2022-08-21T02:53:06;20.70;99.90
20246;DHT22;10281;54.406;18.556;2022-08-21T02:55:34;20.70;99.90
20246;DHT22;10281;54.406;18.556;2022-08-21T02:58:01;20.70;99.90
20246;DHT22;10281;54.406;18.556;2022-08-21T03:00:30;20.70;99.90
20246;DHT22;10281;54.406;18.556;2022-08-21T03:02:59;20.70;99.90
20246;DHT22;10281;54.406;18.556;2022-08-21T03:05:27;20.70;99.90
20246;DHT22;10281;54.406;18.556;2022-08-21T03:07:55;20.70;99.90
20246;DHT22;10281;54.406;18.556;2022-08-21T03:10:21;20.70;99.90
20246;DHT22;10281;54.406;18.556;2022-08-21T03:12:48;20.70;99.90
20246;DHT22;10281;54.406;18.556;2022-08-21T03:15:17;20.60;99.90
20246;DHT22;10281;54.406;18.556;2022-08-21T03:17:44;20.60;99.90
20246;DHT22;10281;54.406;18.556;2022-08-21T03:20:13;20.60;99.90
20246;DHT22;10281;54.406;18.556;2022-08-21T03:22:40;20.60;99.90
20246;DHT22;10281;54.406;18.556;2022-08-21T03:25:08;20.60;99.90
20246;DHT22;10281;54.406;18.556;2022-08-21T03:27:36;20.60;99.90
20246;DHT22;10281;54.406;18.556;2022-08-21T03:30:04;20.70;99.90
20246;DHT22;10281;54.406;18.556;2022-08-21T03:32:32;20.70;99.90
20246;DHT22;10281;54.406;18.556;2022-08-21T03:34:59;20.70;99.90
20246;DHT22;10281;54.406;18.556;2022-08-21T03:37:26;20.70;99.90
20246;DHT22;10281;54.406;18.556;2022-08-21T03:39:52;20.70;99.90
20246;DHT22;10281;54.406;18.556;2022-08-21T03:42:19;20.70;99.90
20246;DHT22;10281;54.406;18.556;2022-08-21T03:44:46;20.70;99.90
20246;DHT22;10281;54.406;18.556;2022-08-21T03:47:12;20.70;99.90
20246;DHT22;10281;54.406;18.556;2022-08-21T03:49:39;20.70;99.90
20246;DHT22;10281;54.406;18.556;2022-08-21T03:52:07;20.70;99.90
20246;DHT22;10281;54.406;18.556;2022-08-21T03:54:33;20.70;99.90
20246;DHT22;10281;54.406;18.556;2022-08-21T03:57:02;20.70;99.90
20246;DHT22;10281;54.406;18.556;2022-08-21T03:59:29;20.80;99.90
20246;DHT22;10281;54.406;18.556;2022-08-21T04:01:58;20.80;99.90
20246;DHT22;10281;54.406;18.556;2022-08-21T04:04:25;20.80;99.90
20246;DHT22;10281;54.406;18.556;2022-08-21T04:06:51;20.80;99.90
20246;DHT22;10281;54.406;18.556;2022-08-21T04:09:18;20.80;99.90
20246;DHT22;10281;54.406;18.556;2022-08-21T04:11:45;20.80;99.90
20246;DHT22;10281;54.406;18.556;2022-08-21T04:14:14;20.80;99.90
20246;DHT22;10281;54.406;18.556;2022-08-21T04:16:42;20.80;99.90
20246;DHT22;10281;54.406;18.556;2022-08-21T04:19:09;20.80;99.90
20246;DHT22;10281;54.406;18.556;2022-08-21T04:21:37;20.80;99.90
20246;DHT22;10281;54.406;18.556;2022-08-21T04:24:05;20.80;99.90
20246;DHT22;10281;54.406;18.556;2022-08-21T04:26:31;20.80;99.90
20246;DHT22;10281;54.406;18.556;2022-08-21T04:29:00;20.80;99.90
20246;DHT22;10281;54.406;18.556;2022-08-21T04:31:27;20.80;99.90
20246;DHT22;10281;54.406;18.556;2022-08-21T04:33:54;20.80;99.90
20246;DHT22;10281;54.406;18.556;2022-08-21T04:36:22;20.70;99.90
20246;DHT22;10281;54.406;18.556;2022-08-21T04:38:49;20.70;99.90
20246;DHT22;10281;54.406;18.556;2022-08-21T04:41:16;20.70;99.90
20246;DHT22;10281;54.406;18.556;2022-08-21T04:43:42;20.80;99.90
20246;DHT22;10281;54.406;18.556;2022-08-21T04:46:09;20.80;99.90
20246;DHT22;10281;54.406;18.556;2022-08-21T04:48:36;20.90;99.90
20246;DHT22;10281;54.406;18.556;2022-08-21T04:51:10;20.90;99.90
20246;DHT22;10281;54.406;18.556;2022-08-21T04:53:41;20.90;99.90
20246;DHT22;10281;54.406;18.556;2022-08-21T04:56:11;20.90;99.90
20246;DHT22;10281;54.406;18.556;2022-08-21T04:58:39;20.80;99.90
20246;DHT22;10281;54.406;18.556;2022-08-21T05:01:11;20.80;99.90
20246;DHT22;10281;54.406;18.556;2022-08-21T05:03:38;20.90;99.90
20246;DHT22;10281;54.406;18.556;2022-08-21T05:06:09;20.90;99.90
20246;DHT22;10281;54.406;18.556;2022-08-21T05:08:37;20.90;99.90
20246;DHT22;10281;54.406;18.556;2022-08-21T05:11:05;20.90;99.90
20246;DHT22;10281;54.406;18.556;2022-08-21T05:13:32;21.00;99.90
20246;DHT22;10281;54.406;18.556;2022-08-21T05:15:59;21.00;99.90
20246;DHT22;10281;54.406;18.556;2022-08-21T05:18:26;21.00;99.90
20246;DHT22;10281;54.406;18.556;2022-08-21T05:20:52;21.00;99.90
20246;DHT22;10281;54.406;18.556;2022-08-21T05:23:19;21.00;99.90
20246;DHT22;10281;54.406;18.556;2022-08-21T05:25:46;21.00;99.90
20246;DHT22;10281;54.406;18.556;2022-08-21T05:28:13;21.00;99.90
20246;DHT22;10281;54.406;18.556;2022-08-21T05:30:39;21.00;99.90
20246;DHT22;10281;54.406;18.556;2022-08-21T05:33:07;21.00;99.90
20246;DHT22;10281;54.406;18.556;2022-08-21T05:35:34;21.00;99.90
20246;DHT22;10281;54.406;18.556;2022-08-21T05:38:01;21.00;99.90
20246;DHT22;10281;54.406;18.556;2022-08-21T05:40:28;21.00;99.90
20246;DHT22;10281;54.406;18.556;2022-08-21T05:42:55;21.00;99.90
20246;DHT22;10281;54.406;18.556;2022-08-21T05:45:25;21.00;99.90
20246;DHT22;10281;54.406;18.556;2022-08-21T05:47:52;21.00;99.90
20246;DHT22;10281;54.406;18.556;2022-08-21T05:50:18;21.00;99.90
20246;DHT22;10281;54.406;18.556;2022-08-21T05:52:45;21.10;99.90
20246;DHT22;10281;54.406;18.556;2022-08-21T05:55:12;21.10;99.90
20246;DHT22;10281;54.406;18.556;2022-08-21T05:57:39;21.00;99.90
20246;DHT22;10281;54.406;18.556;2022-08-21T06:00:08;21.00;99.90
20246;DHT22;10281;54.406;18.556;2022-08-21T06:02:39;21.00;99.90
20246;DHT22;10281;54.406;18.556;2022-08-21T06:05:05;20.90;99.90
20246;DHT22;10281;54.406;18.556;2022-08-21T06:07:32;20.80;99.90
20246;DHT22;10281;54.406;18.556;2022-08-21T06:09:59;20.80;99.90
20246;DHT22;10281;54.406;18.556;2022-08-21T06:12:26;20.80;99.90
20246;DHT22;10281;54.406;18.556;2022-08-21T06:14:52;20.80;99.90
20246;DHT22;10281;54.406;18.556;2022-08-21T06:17:19;20.80;99.90
20246;DHT22;10281;54.406;18.556;2022-08-21T06:19:51;20.80;99.90
20246;DHT22;10281;54.406;18.556;2022-08-21T06:22:18;20.80;99.90
20246;DHT22;10281;54.406;18.556;2022-08-21T06:24:45;20.80;99.90
20246;DHT22;10281;54.406;18.556;2022-08-21T06:27:12;20.80;99.90
20246;DHT22;10281;54.406;18.556;2022-08-21T06:29:39;20.80;99.90
20246;DHT22;10281;54.406;18.556;2022-08-21T06:32:05;20.80;99.90
20246;DHT22;10281;54.406;18.556;2022-08-21T06:34:36;20.90;99.90
20246;DHT22;10281;54.406;18.556;2022-08-21T06:37:04;20.70;99.90
20246;DHT22;10281;54.406;18.556;2022-08-21T06:39:32;20.70;99.90
20246;DHT22;10281;54.406;18.556;2022-08-21T06:41:59;20.70;99.90
20246;DHT22;10281;54.406;18.556;2022-08-21T06:44:26;20.70;99.90
20246;DHT22;10281;54.406;18.556;2022-08-21T06:46:52;20.70;99.90
20246;DHT22;10281;54.406;18.556;2022-08-21T06:49:19;20.70;99.90
20246;DHT22;10281;54.406;18.556;2022-08-21T06:51:45;20.70;99.90
20246;DHT22;10281;54.406;18.556;2022-08-21T06:54:12;20.70;99.90
20246;DHT22;10281;54.406;18.556;2022-08-21T06:56:39;20.70;99.90
20246;DHT22;10281;54.406;18.556;2022-08-21T06:59:06;20.70;99.90
20246;DHT22;10281;54.406;18.556;2022-08-21T07:01:32;20.70;99.90
20246;DHT22;10281;54.406;18.556;2022-08-21T07:03:59;20.60;99.90
20246;DHT22;10281;54.406;18.556;2022-08-21T07:06:26;20.70;99.90
20246;DHT22;10281;54.406;18.556;2022-08-21T07:08:52;20.70;99.90
20246;DHT22;10281;54.406;18.556;2022-08-21T07:11:21;20.60;99.90
20246;DHT22;10281;54.406;18.556;2022-08-21T07:13:49;20.70;99.90
20246;DHT22;10281;54.406;18.556;2022-08-21T07:16:18;20.70;99.90
20246;DHT22;10281;54.406;18.556;2022-08-21T07:18:44;20.70;99.90
20246;DHT22;10281;54.406;18.556;2022-08-21T07:21:11;20.60;99.90
20246;DHT22;10281;54.406;18.556;2022-08-21T07:23:41;20.50;99.90
20246;DHT22;10281;54.406;18.556;2022-08-21T07:26:10;20.60;99.90
20246;DHT22;10281;54.406;18.556;2022-08-21T07:28:37;20.60;99.90
20246;DHT22;10281;54.406;18.556;2022-08-21T07:31:04;20.60;99.90
20246;DHT22;10281;54.406;18.556;2022-08-21T07:33:33;20.50;99.90
20246;DHT22;10281;54.406;18.556;2022-08-21T07:36:00;20.50;99.90
20246;DHT22;10281;54.406;18.556;2022-08-21T07:38:27;20.50;99.90
20246;DHT22;10281;54.406;18.556;2022-08-21T07:40:55;20.50;99.90
20246;DHT22;10281;54.406;18.556;2022-08-21T07:43:25;20.50;99.90
20246;DHT22;10281;54.406;18.556;2022-08-21T07:45:52;20.40;99.90
20246;DHT22;10281;54.406;18.556;2022-08-21T07:48:21;20.30;99.90
20246;DHT22;10281;54.406;18.556;2022-08-21T07:50:48;20.20;99.90
20246;DHT22;10281;54.406;18.556;2022-08-21T07:53:15;20.10;99.90
20246;DHT22;10281;54.406;18.556;2022-08-21T07:55:42;20.10;99.90
20246;DHT22;10281;54.406;18.556;2022-08-21T07:58:09;20.00;99.90
20246;DHT22;10281;54.406;18.556;2022-08-21T08:00:35;19.90;99.90
20246;DHT22;10281;54.406;18.556;2022-08-21T08:03:02;19.80;99.90
20246;DHT22;10281;54.406;18.556;2022-08-21T08:05:30;19.90;99.90
20246;DHT22;10281;54.406;18.556;2022-08-21T08:07:57;19.80;99.90
20246;DHT22;10281;54.406;18.556;2022-08-21T08:10:24;19.70;99.90
20246;DHT22;10281;54.406;18.556;2022-08-21T08:12:52;19.80;99.90
20246;DHT22;10281;54.406;18.556;2022-08-21T08:15:24;19.80;99.90
20246;DHT22;10281;54.406;18.556;2022-08-21T08:17:50;19.80;99.90
20246;DHT22;10281;54.406;18.556;2022-08-21T08:20:18;19.80;99.90
20246;DHT22;10281;54.406;18.556;2022-08-21T08:22:46;19.80;99.90
20246;DHT22;10281;54.406;18.556;2022-08-21T08:25:13;20.00;99.90
20246;DHT22;10281;54.406;18.556;2022-08-21T08:27:40;20.00;99.90
20246;DHT22;10281;54.406;18.556;2022-08-21T08:30:09;20.10;99.90
20246;DHT22;10281;54.406;18.556;2022-08-21T08:32:37;20.20;99.90
20246;DHT22;10281;54.406;18.556;2022-08-21T08:35:05;20.20;99.90
20246;DHT22;10281;54.406;18.556;2022-08-21T08:37:33;20.30;99.90
20246;DHT22;10281;54.406;18.556;2022-08-21T08:40:00;20.30;99.90
20246;DHT22;10281;54.406;18.556;2022-08-21T08:42:34;20.40;99.90
20246;DHT22;10281;54.406;18.556;2022-08-21T08:45:08;20.50;99.90
20246;DHT22;10281;54.406;18.556;2022-08-21T08:47:39;20.50;99.90
20246;DHT22;10281;54.406;18.556;2022-08-21T08:50:10;20.60;99.90
20246;DHT22;10281;54.406;18.556;2022-08-21T08:52:41;20.60;99.90
20246;DHT22;10281;54.406;18.556;2022-08-21T08:55:13;20.50;99.90
20246;DHT22;10281;54.406;18.556;2022-08-21T08:57:45;20.50;99.90
20246;DHT22;10281;54.406;18.556;2022-08-21T09:00:14;20.40;99.90
20246;DHT22;10281;54.406;18.556;2022-08-21T09:02:43;20.50;99.90
20246;DHT22;10281;54.406;18.556;2022-08-21T09:05:18;20.50;99.90
20246;DHT22;10281;54.406;18.556;2022-08-21T09:08:04;20.60;99.90
20246;DHT22;10281;54.406;18.556;2022-08-21T09:10:45;20.50;99.90
20246;DHT22;10281;54.406;18.556;2022-08-21T09:13:37;20.70;99.90
20246;DHT22;10281;54.406;18.556;2022-08-21T09:16:05;20.60;99.90
20246;DHT22;10281;54.406;18.556;2022-08-21T09:18:38;20.60;99.90
20246;DHT22;10281;54.406;18.556;2022-08-21T09:21:21;20.70;99.90
20246;DHT22;10281;54.406;18.556;2022-08-21T09:23:55;20.80;99.90
20246;DHT22;10281;54.406;18.556;2022-08-21T09:26:23;20.80;99.90
20246;DHT22;10281;54.406;18.556;2022-08-21T09:28:55;20.70;99.90
20246;DHT22;10281;54.406;18.556;2022-08-21T09:31:32;20.80;99.90
20246;DHT22;10281;54.406;18.556;2022-08-21T09:34:04;20.80;99.90
20246;DHT22;10281;54.406;18.556;2022-08-21T09:36:37;20.80;99.90
20246;DHT22;10281;54.406;18.556;2022-08-21T09:39:05;20.80;99.90
20246;DHT22;10281;54.406;18.556;2022-08-21T09:41:34;20.70;99.90
20246;DHT22;10281;54.406;18.556;2022-08-21T09:44:02;20.70;99.90
20246;DHT22;10281;54.406;18.556;2022-08-21T09:46:29;20.80;99.90
20246;DHT22;10281;54.406;18.556;2022-08-21T09:48:59;20.70;99.90
20246;DHT22;10281;54.406;18.556;2022-08-21T09:51:30;20.80;99.90
20246;DHT22;10281;54.406;18.556;2022-08-21T09:56:56;20.60;99.90
20246;DHT22;10281;54.406;18.556;2022-08-21T09:59:31;20.50;99.90
20246;DHT22;10281;54.406;18.556;2022-08-21T10:02:00;20.30;99.90
20246;DHT22;10281;54.406;18.556;2022-08-21T10:04:31;20.20;99.90
20246;DHT22;10281;54.406;18.556;2022-08-21T10:07:07;20.20;99.90
20246;DHT22;10281;54.406;18.556;2022-08-21T10:09:34;20.10;99.90
20246;DHT22;10281;54.406;18.556;2022-08-21T10:13:12;20.10;99.90
20246;DHT22;10281;54.406;18.556;2022-08-21T10:14:59;20.20;99.90
20246;DHT22;10281;54.406;18.556;2022-08-21T10:17:32;20.10;99.90
20246;DHT22;10281;54.406;18.556;2022-08-21T10:20:08;20.00;99.90
20246;DHT22;10281;54.406;18.556;2022-08-21T10:23:01;20.00;99.90
20246;DHT22;10281;54.406;18.556;2022-08-21T10:25:37;20.00;99.90
20246;DHT22;10281;54.406;18.556;2022-08-21T10:28:13;20.00;99.90
20246;DHT22;10281;54.406;18.556;2022-08-21T10:30:46;19.90;99.90
20246;DHT22;10281;54.406;18.556;2022-08-21T10:33:23;19.90;99.90
20246;DHT22;10281;54.406;18.556;2022-08-21T10:38:36;20.00;99.90
20246;DHT22;10281;54.406;18.556;2022-08-21T10:41:10;20.10;99.90
20246;DHT22;10281;54.406;18.556;2022-08-21T10:44:02;20.10;99.90
20246;DHT22;10281;54.406;18.556;2022-08-21T10:49:17;20.10;99.90
20246;DHT22;10281;54.406;18.556;2022-08-21T10:51:49;20.00;99.90
20246;DHT22;10281;54.406;18.556;2022-08-21T10:54:21;20.00;99.90
20246;DHT22;10281;54.406;18.556;2022-08-21T10:56:49;20.10;99.90
20246;DHT22;10281;54.406;18.556;2022-08-21T10:59:27;20.00;99.90
20246;DHT22;10281;54.406;18.556;2022-08-21T11:02:02;19.90;99.90
20246;DHT22;10281;54.406;18.556;2022-08-21T11:04:37;19.90;99.90
20246;DHT22;10281;54.406;18.556;2022-08-21T11:07:12;19.90;99.90
20246;DHT22;10281;54.406;18.556;2022-08-21T11:09:40;19.90;99.90
20246;DHT22;10281;54.406;18.556;2022-08-21T11:12:17;19.80;99.90
20246;DHT22;10281;54.406;18.556;2022-08-21T11:14:49;19.90;99.90
20246;DHT22;10281;54.406;18.556;2022-08-21T11:17:20;19.80;99.90
20246;DHT22;10281;54.406;18.556;2022-08-21T11:19:53;19.80;99.90
20246;DHT22;10281;54.406;18.556;2022-08-21T11:25:31;19.90;99.90
20246;DHT22;10281;54.406;18.556;2022-08-21T11:30:52;19.70;99.90
20246;DHT22;10281;54.406;18.556;2022-08-21T11:33:25;19.80;99.90
20246;DHT22;10281;54.406;18.556;2022-08-21T11:35:52;19.90;99.90
20246;DHT22;10281;54.406;18.556;2022-08-21T11:38:26;19.90;99.90
20246;DHT22;10281;54.406;18.556;2022-08-21T11:41:03;19.80;99.90
20246;DHT22;10281;54.406;18.556;2022-08-21T11:43:40;19.90;99.90
20246;DHT22;10281;54.406;18.556;2022-08-21T11:49:06;19.80;99.90
20246;DHT22;10281;54.406;18.556;2022-08-21T11:51:53;19.90;99.90
20246;DHT22;10281;54.406;18.556;2022-08-21T11:54:43;19.90;99.90
20246;DHT22;10281;54.406;18.556;2022-08-21T11:57:17;19.90;99.90
20246;DHT22;10281;54.406;18.556;2022-08-21T11:59:48;19.90;99.90
20246;DHT22;10281;54.406;18.556;2022-08-21T12:02:18;19.90;99.90
20246;DHT22;10281;54.406;18.556;2022-08-21T12:04:49;19.90;99.90
20246;DHT22;10281;54.406;18.556;2022-08-21T12:07:29;19.80;99.90
20246;DHT22;10281;54.406;18.556;2022-08-21T12:09:54;19.80;99.90
20246;DHT22;10281;54.406;18.556;2022-08-21T12:12:27;20.00;99.90
20246;DHT22;10281;54.406;18.556;2022-08-21T12:15:35;20.00;99.90
20246;DHT22;10281;54.406;18.556;2022-08-21T12:18:01;20.00;99.90
20246;DHT22;10281;54.406;18.556;2022-08-21T12:20:41;20.20;99.90
20246;DHT22;10281;54.406;18.556;2022-08-21T12:23:23;19.90;99.90
20246;DHT22;10281;54.406;18.556;2022-08-21T12:26:09;19.90;99.90
20246;DHT22;10281;54.406;18.556;2022-08-21T12:28:32;19.80;99.90
20246;DHT22;10281;54.406;18.556;2022-08-21T12:30:58;19.90;99.90
20246;DHT22;10281;54.406;18.556;2022-08-21T12:33:37;19.80;99.90
20246;DHT22;10281;54.406;18.556;2022-08-21T12:36:07;19.90;99.90
20246;DHT22;10281;54.406;18.556;2022-08-21T12:38:48;19.90;99.90
20246;DHT22;10281;54.406;18.556;2022-08-21T12:41:19;19.90;99.90
20246;DHT22;10281;54.406;18.556;2022-08-21T12:43:50;19.90;99.90
20246;DHT22;10281;54.406;18.556;2022-08-21T12:46:19;20.00;99.90
20246;DHT22;10281;54.406;18.556;2022-08-21T12:48:52;20.10;99.90
20246;DHT22;10281;54.406;18.556;2022-08-21T12:51:24;20.10;99.90
20246;DHT22;10281;54.406;18.556;2022-08-21T12:53:54;20.10;99.90
20246;DHT22;10281;54.406;18.556;2022-08-21T12:56:24;20.00;99.90
20246;DHT22;10281;54.406;18.556;2022-08-21T12:58:56;20.00;99.90
20246;DHT22;10281;54.406;18.556;2022-08-21T13:01:32;20.00;99.90
20246;DHT22;10281;54.406;18.556;2022-08-21T13:04:04;19.90;99.90
20246;DHT22;10281;54.406;18.556;2022-08-21T13:06:38;19.90;99.90
20246;DHT22;10281;54.406;18.556;2022-08-21T13:09:08;19.80;99.90
20246;DHT22;10281;54.406;18.556;2022-08-21T13:11:35;19.70;99.90
20246;DHT22;10281;54.406;18.556;2022-08-21T13:14:03;19.80;99.90
20246;DHT22;10281;54.406;18.556;2022-08-21T13:16:31;19.80;99.90
20246;DHT22;10281;54.406;18.556;2022-08-21T13:19:03;19.80;99.90
20246;DHT22;10281;54.406;18.556;2022-08-21T13:21:39;19.90;99.90
20246;DHT22;10281;54.406;18.556;2022-08-21T13:24:19;19.90;99.90
20246;DHT22;10281;54.406;18.556;2022-08-21T13:26:47;19.80;99.90
20246;DHT22;10281;54.406;18.556;2022-08-21T13:29:18;19.70;99.90
20246;DHT22;10281;54.406;18.556;2022-08-21T13:31:54;19.60;99.90
20246;DHT22;10281;54.406;18.556;2022-08-21T13:34:23;19.60;99.90
20246;DHT22;10281;54.406;18.556;2022-08-21T13:36:54;19.70;99.90
20246;DHT22;10281;54.406;18.556;2022-08-21T13:39:22;19.70;99.90
20246;DHT22;10281;54.406;18.556;2022-08-21T13:41:51;19.80;99.90
20246;DHT22;10281;54.406;18.556;2022-08-21T13:44:21;19.70;99.90
20246;DHT22;10281;54.406;18.556;2022-08-21T13:46:50;19.60;99.90
20246;DHT22;10281;54.406;18.556;2022-08-21T13:49:19;19.60;99.90
20246;DHT22;10281;54.406;18.556;2022-08-21T13:51:47;19.60;99.90
20246;DHT22;10281;54.406;18.556;2022-08-21T13:54:23;19.50;99.90
20246;DHT22;10281;54.406;18.556;2022-08-21T13:56:49;19.50;99.90
20246;DHT22;10281;54.406;18.556;2022-08-21T13:59:24;19.60;99.90
20246;DHT22;10281;54.406;18.556;2022-08-21T14:01:55;19.60;99.90
20246;DHT22;10281;54.406;18.556;2022-08-21T14:04:32;19.50;99.90
20246;DHT22;10281;54.406;18.556;2022-08-21T14:06:58;19.40;99.90
20246;DHT22;10281;54.406;18.556;2022-08-21T14:09:32;19.40;99.90
20246;DHT22;10281;54.406;18.556;2022-08-21T14:12:10;19.40;99.90
20246;DHT22;10281;54.406;18.556;2022-08-21T14:14:33;19.40;99.90
20246;DHT22;10281;54.406;18.556;2022-08-21T14:17:04;19.30;99.90
20246;DHT22;10281;54.406;18.556;2022-08-21T14:19:40;19.30;99.90
20246;DHT22;10281;54.406;18.556;2022-08-21T14:24:46;19.10;99.90
20246;DHT22;10281;54.406;18.556;2022-08-21T14:27:17;19.10;99.90
20246;DHT22;10281;54.406;18.556;2022-08-21T14:29:44;19.10;99.90
20246;DHT22;10281;54.406;18.556;2022-08-21T14:32:19;19.10;99.90
20246;DHT22;10281;54.406;18.556;2022-08-21T14:34:44;19.10;99.90
20246;DHT22;10281;54.406;18.556;2022-08-21T14:37:11;19.00;99.90
20246;DHT22;10281;54.406;18.556;2022-08-21T14:39:38;19.10;99.90
20246;DHT22;10281;54.406;18.556;2022-08-21T14:42:05;19.00;99.90
20246;DHT22;10281;54.406;18.556;2022-08-21T14:44:31;19.00;99.90
20246;DHT22;10281;54.406;18.556;2022-08-21T14:46:58;19.00;99.90
20246;DHT22;10281;54.406;18.556;2022-08-21T14:49:27;19.00;99.90
20246;DHT22;10281;54.406;18.556;2022-08-21T14:51:56;18.90;99.90
20246;DHT22;10281;54.406;18.556;2022-08-21T14:54:24;18.70;99.90
20246;DHT22;10281;54.406;18.556;2022-08-21T14:56:51;18.70;99.90
20246;DHT22;10281;54.406;18.556;2022-08-21T14:59:18;18.50;99.90
20246;DHT22;10281;54.406;18.556;2022-08-21T15:01:46;18.40;99.90
20246;DHT22;10281;54.406;18.556;2022-08-21T15:04:13;18.30;99.90
20246;DHT22;10281;54.406;18.556;2022-08-21T15:06:40;18.30;99.90
20246;DHT22;10281;54.406;18.556;2022-08-21T15:09:07;18.30;99.90
20246;DHT22;10281;54.406;18.556;2022-08-21T15:11:34;18.40;99.90
20246;DHT22;10281;54.406;18.556;2022-08-21T15:14:03;18.40;99.90
20246;DHT22;10281;54.406;18.556;2022-08-21T15:16:31;18.40;99.90
20246;DHT22;10281;54.406;18.556;2022-08-21T15:18:58;18.40;99.90
20246;DHT22;10281;54.406;18.556;2022-08-21T15:21:25;18.40;99.90
20246;DHT22;10281;54.406;18.556;2022-08-21T15:23:51;18.40;99.90
20246;DHT22;10281;54.406;18.556;2022-08-21T15:26:20;18.50;99.90
20246;DHT22;10281;54.406;18.556;2022-08-21T15:28:47;18.50;99.90
20246;DHT22;10281;54.406;18.556;2022-08-21T15:31:13;18.60;99.90
20246;DHT22;10281;54.406;18.556;2022-08-21T15:33:40;18.60;99.90
20246;DHT22;10281;54.406;18.556;2022-08-21T15:36:07;18.70;99.90
20246;DHT22;10281;54.406;18.556;2022-08-21T15:38:33;18.70;99.90
20246;DHT22;10281;54.406;18.556;2022-08-21T15:41:02;18.70;99.90
20246;DHT22;10281;54.406;18.556;2022-08-21T15:43:35;18.70;99.90
20246;DHT22;10281;54.406;18.556;2022-08-21T15:46:00;18.70;99.90
20246;DHT22;10281;54.406;18.556;2022-08-21T15:48:28;18.80;99.90